sensor_id;sensor_type;location;lat;lon;timestamp;pressure;altitude;pressure_sealevel;temperature;humidity
73671;BME280;61968;48.178;11.566;2023-03-03T00:00:04;95809.22;;;2.76;42.29
73671;BME280;61968;48.178;11.566;2023-03-03T00:02:32;95813.72;;;2.82;41.83
73671;BME280;61968;48.178;11.566;2023-03-03T00:04:59;95810.75;;;2.70;41.91
73671;BME280;61968;48.178;11.566;2023-03-03T00:07:25;95816.59;;;2.72;41.74
73671;BME280;61968;48.178;11.566;2023-03-03T00:09:52;95806.44;;;2.77;42.02
73671;BME280;61968;48.178;11.566;2023-03-03T00:12:22;95809.56;;;2.73;41.78
73671;BME280;61968;48.178;11.566;2023-03-03T00:14:49;95812.72;;;2.68;41.46
73671;BME280;61968;48.178;11.566;2023-03-03T00:17:18;95809.94;;;2.70;41.93
73671;BME280;61968;48.178;11.566;2023-03-03T00:19:47;95809.84;;;2.63;42.23
73671;BME280;61968;48.178;11.566;2023-03-03T00:22:24;95807.03;;;2.64;41.91
73671;BME280;61968;48.178;11.566;2023-03-03T00:24:52;95806.69;;;2.68;41.57
73671;BME280;61968;48.178;11.566;2023-03-03T00:27:26;95807.84;;;2.65;42.43
73671;BME280;61968;48.178;11.566;2023-03-03T00:29:55;95793.72;;;2.59;42.19
73671;BME280;61968;48.178;11.566;2023-03-03T00:32:24;95804.34;;;2.58;41.83
73671;BME280;61968;48.178;11.566;2023-03-03T00:34:53;95807.84;;;2.65;41.91
73671;BME280;61968;48.178;11.566;2023-03-03T00:37:29;95803.81;;;2.62;42.17
73671;BME280;61968;48.178;11.566;2023-03-03T00:40:08;95804.44;;;2.64;42.22
73671;BME280;61968;48.178;11.566;2023-03-03T00:42:38;95807.97;;;2.72;42.07
73671;BME280;61968;48.178;11.566;2023-03-03T00:45:20;95816.69;;;2.64;41.55
73671;BME280;61968;48.178;11.566;2023-03-03T00:47:49;95811.28;;;2.66;41.82
73671;BME280;61968;48.178;11.566;2023-03-03T00:50:32;95823.50;;;2.65;42.29
73671;BME280;61968;48.178;11.566;2023-03-03T00:53:05;95819.94;;;2.66;41.78
73671;BME280;61968;48.178;11.566;2023-03-03T00:55:33;95820.72;;;2.67;41.96
73671;BME280;61968;48.178;11.566;2023-03-03T00:58:00;95816.50;;;2.66;42.22
73671;BME280;61968;48.178;11.566;2023-03-03T01:00:27;95824.34;;;2.66;42.00
73671;BME280;61968;48.178;11.566;2023-03-03T01:02:54;95818.38;;;2.57;42.58
73671;BME280;61968;48.178;11.566;2023-03-03T01:05:20;95815.50;;;2.52;42.37
73671;BME280;61968;48.178;11.566;2023-03-03T01:07:48;95814.63;;;2.59;42.52
73671;BME280;61968;48.178;11.566;2023-03-03T01:10:15;95810.56;;;2.57;42.55
73671;BME280;61968;48.178;11.566;2023-03-03T01:12:42;95814.97;;;2.56;42.31
73671;BME280;61968;48.178;11.566;2023-03-03T01:15:10;95813.31;;;2.55;42.49
73671;BME280;61968;48.178;11.566;2023-03-03T01:17:37;95813.44;;;2.47;42.48
73671;BME280;61968;48.178;11.566;2023-03-03T01:20:10;95819.25;;;2.49;42.72
73671;BME280;61968;48.178;11.566;2023-03-03T01:22:37;95808.91;;;2.41;42.74
73671;BME280;61968;48.178;11.566;2023-03-03T01:25:05;95811.03;;;2.37;42.63
73671;BME280;61968;48.178;11.566;2023-03-03T01:27:33;95814.38;;;2.46;42.56
73671;BME280;61968;48.178;11.566;2023-03-03T01:30:00;95812.13;;;2.43;42.71
73671;BME280;61968;48.178;11.566;2023-03-03T01:32:27;95805.94;;;2.44;42.41
73671;BME280;61968;48.178;11.566;2023-03-03T01:34:54;95810.34;;;2.44;42.76
73671;BME280;61968;48.178;11.566;2023-03-03T01:37:21;95800.91;;;2.43;42.39
73671;BME280;61968;48.178;11.566;2023-03-03T01:39:48;95798.13;;;2.44;42.66
73671;BME280;61968;48.178;11.566;2023-03-03T01:42:17;95803.59;;;2.49;43.03
73671;BME280;61968;48.178;11.566;2023-03-03T01:44:44;95799.72;;;2.45;43.12
73671;BME280;61968;48.178;11.566;2023-03-03T01:47:12;95795.63;;;2.28;42.88
73671;BME280;61968;48.178;11.566;2023-03-03T01:49:44;95798.09;;;2.29;43.32
73671;BME280;61968;48.178;11.566;2023-03-03T01:52:20;95796.91;;;2.32;43.06
73671;BME280;61968;48.178;11.566;2023-03-03T01:54:50;95800.16;;;2.34;42.63
73671;BME280;61968;48.178;11.566;2023-03-03T01:57:23;95804.06;;;2.38;43.09
73671;BME280;61968;48.178;11.566;2023-03-03T01:59:52;95790.16;;;2.37;43.10
73671;BME280;61968;48.178;11.566;2023-03-03T02:02:20;95795.56;;;2.36;43.05
73671;BME280;61968;48.178;11.566;2023-03-03T02:04:48;95789.19;;;2.38;42.89
73671;BME280;61968;48.178;11.566;2023-03-03T02:07:16;95784.50;;;2.34;43.43
73671;BME280;61968;48.178;11.566;2023-03-03T02:09:51;95790.53;;;2.34;43.25
73671;BME280;61968;48.178;11.566;2023-03-03T02:12:26;95789.91;;;2.32;43.54
73671;BME280;61968;48.178;11.566;2023-03-03T02:14:55;95789.25;;;2.30;43.61
73671;BME280;61968;48.178;11.566;2023-03-03T02:17:21;95789.25;;;2.30;43.26
73671;BME280;61968;48.178;11.566;2023-03-03T02:19:52;95787.91;;;2.34;42.83
73671;BME280;61968;48.178;11.566;2023-03-03T02:22:31;95792.03;;;2.29;42.98
73671;BME280;61968;48.178;11.566;2023-03-03T02:25:01;95790.41;;;2.28;43.45
73671;BME280;61968;48.178;11.566;2023-03-03T02:27:30;95795.63;;;2.28;44.04
73671;BME280;61968;48.178;11.566;2023-03-03T02:30:07;95800.50;;;2.31;43.24
73671;BME280;61968;48.178;11.566;2023-03-03T02:32:34;95794.38;;;2.24;43.63
73671;BME280;61968;48.178;11.566;2023-03-03T02:35:00;95792.81;;;2.14;44.28
73671;BME280;61968;48.178;11.566;2023-03-03T02:37:27;95793.66;;;2.30;43.42
73671;BME280;61968;48.178;11.566;2023-03-03T02:39:54;95791.00;;;2.38;43.73
73671;BME280;61968;48.178;11.566;2023-03-03T02:42:22;95788.13;;;2.48;42.82
73671;BME280;61968;48.178;11.566;2023-03-03T02:44:54;95790.53;;;2.34;43.19
73671;BME280;61968;48.178;11.566;2023-03-03T02:47:20;95788.47;;;2.30;43.90
73671;BME280;61968;48.178;11.566;2023-03-03T02:49:47;95792.31;;;2.34;43.06
73671;BME280;61968;48.178;11.566;2023-03-03T02:52:13;95790.41;;;2.28;43.88
73671;BME280;61968;48.178;11.566;2023-03-03T02:54:42;95784.84;;;2.31;43.67
73671;BME280;61968;48.178;11.566;2023-03-03T02:57:08;95786.75;;;2.37;43.69
73671;BME280;61968;48.178;11.566;2023-03-03T02:59:35;95785.94;;;2.36;43.49
73671;BME280;61968;48.178;11.566;2023-03-03T03:02:03;95788.75;;;2.35;43.58
73671;BME280;61968;48.178;11.566;2023-03-03T03:04:29;95790.66;;;2.41;43.48
73671;BME280;61968;48.178;11.566;2023-03-03T03:06:56;95785.22;;;2.43;43.56
73671;BME280;61968;48.178;11.566;2023-03-03T03:09:23;95785.44;;;2.41;43.46
73671;BME280;61968;48.178;11.566;2023-03-03T03:11:50;95787.41;;;2.39;44.29
73671;BME280;61968;48.178;11.566;2023-03-03T03:14:17;95784.94;;;2.37;43.74
73671;BME280;61968;48.178;11.566;2023-03-03T03:16:43;95792.88;;;2.29;43.71
73671;BME280;61968;48.178;11.566;2023-03-03T03:19:11;95793.22;;;2.26;44.31
73671;BME280;61968;48.178;11.566;2023-03-03T03:21:37;95789.91;;;2.32;44.47
73671;BME280;61968;48.178;11.566;2023-03-03T03:24:04;95782.53;;;2.36;43.94
73671;BME280;61968;48.178;11.566;2023-03-03T03:26:31;95791.16;;;2.36;43.75
73671;BME280;61968;48.178;11.566;2023-03-03T03:28:57;95803.06;;;2.39;43.59
73671;BME280;61968;48.178;11.566;2023-03-03T03:31:24;95796.22;;;2.38;44.00
73671;BME280;61968;48.178;11.566;2023-03-03T03:33:50;95796.91;;;2.32;44.14
73671;BME280;61968;48.178;11.566;2023-03-03T03:36:18;95792.63;;;2.39;44.15
73671;BME280;61968;48.178;11.566;2023-03-03T03:38:45;95796.56;;;2.35;44.38
73671;BME280;61968;48.178;11.566;2023-03-03T03:41:12;95789.28;;;2.45;44.10
73671;BME280;61968;48.178;11.566;2023-03-03T03:43:38;95790.19;;;2.52;43.71
73671;BME280;61968;48.178;11.566;2023-03-03T03:46:05;95786.50;;;2.47;44.26
73671;BME280;61968;48.178;11.566;2023-03-03T03:48:32;95790.75;;;2.48;43.86
73671;BME280;61968;48.178;11.566;2023-03-03T03:50:58;95789.09;;;2.47;44.02
73671;BME280;61968;48.178;11.566;2023-03-03T03:53:26;95789.75;;;2.49;44.38
73671;BME280;61968;48.178;11.566;2023-03-03T03:55:52;95791.19;;;2.51;44.38
73671;BME280;61968;48.178;11.566;2023-03-03T03:58:19;95787.78;;;2.51;43.91
73671;BME280;61968;48.178;11.566;2023-03-03T04:00:46;95795.59;;;2.51;44.15
73671;BME280;61968;48.178;11.566;2023-03-03T04:03:12;95794.16;;;2.48;44.15
73671;BME280;61968;48.178;11.566;2023-03-03T04:05:39;95792.00;;;2.52;44.52
73671;BME280;61968;48.178;11.566;2023-03-03T04:08:06;95791.84;;;2.53;44.56
73671;BME280;61968;48.178;11.566;2023-03-03T04:10:34;95796.34;;;2.59;44.13
73671;BME280;61968;48.178;11.566;2023-03-03T04:13:01;95793.13;;;2.34;45.00
73671;BME280;61968;48.178;11.566;2023-03-03T04:15:27;95793.25;;;2.41;44.88
73671;BME280;61968;48.178;11.566;2023-03-03T04:17:54;95793.88;;;2.43;44.45
73671;BME280;61968;48.178;11.566;2023-03-03T04:20:20;95803.81;;;2.92;52.91
73671;BME280;61968;48.178;11.566;2023-03-03T04:22:47;95798.75;;;3.86;51.20
73671;BME280;61968;48.178;11.566;2023-03-03T04:25:14;95794.81;;;4.46;46.16
73671;BME280;61968;48.178;11.566;2023-03-03T04:27:43;95794.69;;;4.55;42.79
73671;BME280;61968;48.178;11.566;2023-03-03T04:30:11;95791.16;;;4.69;48.07
73671;BME280;61968;48.178;11.566;2023-03-03T04:32:38;95795.22;;;5.41;38.78
73671;BME280;61968;48.178;11.566;2023-03-03T04:35:05;95793.50;;;4.57;39.51
73671;BME280;61968;48.178;11.566;2023-03-03T04:37:31;95803.41;;;3.91;40.65
73671;BME280;61968;48.178;11.566;2023-03-03T04:39:58;95794.75;;;3.69;42.17
73671;BME280;61968;48.178;11.566;2023-03-03T04:42:25;95796.38;;;3.55;41.99
73671;BME280;61968;48.178;11.566;2023-03-03T04:44:54;95797.41;;;3.39;41.78
73671;BME280;61968;48.178;11.566;2023-03-03T04:47:20;95799.69;;;3.27;42.36
73671;BME280;61968;48.178;11.566;2023-03-03T04:49:47;95798.78;;;3.20;42.78
73671;BME280;61968;48.178;11.566;2023-03-03T04:52:13;95794.53;;;3.19;42.22
73671;BME280;61968;48.178;11.566;2023-03-03T04:54:40;95798.78;;;3.20;42.01
73671;BME280;61968;48.178;11.566;2023-03-03T04:57:06;95796.44;;;3.11;42.28
73671;BME280;61968;48.178;11.566;2023-03-03T04:59:34;95793.91;;;3.02;42.45
73671;BME280;61968;48.178;11.566;2023-03-03T05:02:02;95796.25;;;2.97;43.10
73671;BME280;61968;48.178;11.566;2023-03-03T05:04:29;95796.25;;;2.68;43.58
73671;BME280;61968;48.178;11.566;2023-03-03T05:06:56;95801.81;;;2.64;43.54
73671;BME280;61968;48.178;11.566;2023-03-03T05:09:23;95797.31;;;2.58;44.18
73671;BME280;61968;48.178;11.566;2023-03-03T05:11:49;95800.47;;;2.54;43.84
73671;BME280;61968;48.178;11.566;2023-03-03T05:14:16;95802.88;;;2.55;43.59
73671;BME280;61968;48.178;11.566;2023-03-03T05:16:42;95802.97;;;2.62;43.93
73671;BME280;61968;48.178;11.566;2023-03-03T05:19:10;95797.47;;;2.42;43.63
73671;BME280;61968;48.178;11.566;2023-03-03T05:21:36;95797.56;;;2.49;44.19
73671;BME280;61968;48.178;11.566;2023-03-03T05:24:06;95808.56;;;2.44;43.92
73671;BME280;61968;48.178;11.566;2023-03-03T05:26:33;95798.38;;;2.49;44.31
73671;BME280;61968;48.178;11.566;2023-03-03T05:28:59;95799.47;;;2.55;44.19
73671;BME280;61968;48.178;11.566;2023-03-03T05:31:26;95799.66;;;2.53;44.04
73671;BME280;61968;48.178;11.566;2023-03-03T05:33:53;95807.22;;;2.63;44.01
73671;BME280;61968;48.178;11.566;2023-03-03T05:36:21;95813.63;;;2.75;43.93
73671;BME280;61968;48.178;11.566;2023-03-03T05:38:48;95804.88;;;2.53;43.52
73671;BME280;61968;48.178;11.566;2023-03-03T05:41:14;95814.50;;;2.38;44.62
73671;BME280;61968;48.178;11.566;2023-03-03T05:43:41;95811.69;;;2.16;44.81
73671;BME280;61968;48.178;11.566;2023-03-03T05:46:09;95811.78;;;2.46;44.15
73671;BME280;61968;48.178;11.566;2023-03-03T05:48:35;95809.44;;;2.13;45.11
73671;BME280;61968;48.178;11.566;2023-03-03T05:51:02;95815.56;;;2.06;44.78
73671;BME280;61968;48.178;11.566;2023-03-03T05:53:30;95817.22;;;2.22;45.23
73671;BME280;61968;48.178;11.566;2023-03-03T05:55:56;95820.31;;;2.40;44.88
73671;BME280;61968;48.178;11.566;2023-03-03T05:58:23;95824.13;;;2.52;44.66
73671;BME280;61968;48.178;11.566;2023-03-03T06:00:49;95823.22;;;2.45;44.60
73671;BME280;61968;48.178;11.566;2023-03-03T06:03:15;95821.25;;;2.47;44.46
73671;BME280;61968;48.178;11.566;2023-03-03T06:05:42;95829.09;;;2.47;44.64
73671;BME280;61968;48.178;11.566;2023-03-03T06:08:08;95830.59;;;2.42;44.11
73671;BME280;61968;48.178;11.566;2023-03-03T06:10:36;95838.13;;;2.36;44.06
73671;BME280;61968;48.178;11.566;2023-03-03T06:13:03;95836.03;;;2.32;43.95
73671;BME280;61968;48.178;11.566;2023-03-03T06:15:29;95840.75;;;2.13;45.11
73671;BME280;61968;48.178;11.566;2023-03-03T06:17:56;95846.25;;;2.18;45.75
73671;BME280;61968;48.178;11.566;2023-03-03T06:20:22;95849.09;;;2.32;44.19
73671;BME280;61968;48.178;11.566;2023-03-03T06:22:49;95853.16;;;2.11;44.62
73671;BME280;61968;48.178;11.566;2023-03-03T06:25:15;95852.81;;;2.14;45.22
73671;BME280;61968;48.178;11.566;2023-03-03T06:27:43;95856.66;;;2.27;44.50
73671;BME280;61968;48.178;11.566;2023-03-03T06:30:10;95858.84;;;2.38;44.00
73671;BME280;61968;48.178;11.566;2023-03-03T06:32:38;95850.56;;;2.49;43.96
73671;BME280;61968;48.178;11.566;2023-03-03T06:35:04;95853.28;;;2.56;44.01
73671;BME280;61968;48.178;11.566;2023-03-03T06:37:31;95857.69;;;2.55;43.68
73671;BME280;61968;48.178;11.566;2023-03-03T06:39:57;95855.00;;;2.49;44.06
73671;BME280;61968;48.178;11.566;2023-03-03T06:42:24;95854.75;;;2.58;43.99
73671;BME280;61968;48.178;11.566;2023-03-03T06:44:52;95857.56;;;2.34;44.12
73671;BME280;61968;48.178;11.566;2023-03-03T06:47:19;95864.06;;;2.38;43.88
73671;BME280;61968;48.178;11.566;2023-03-03T06:49:45;95866.03;;;2.36;44.23
73671;BME280;61968;48.178;11.566;2023-03-03T06:52:22;95863.28;;;2.52;44.50
73671;BME280;61968;48.178;11.566;2023-03-03T06:54:48;95860.00;;;2.35;44.25
73671;BME280;61968;48.178;11.566;2023-03-03T06:57:19;95868.53;;;2.29;44.36
73671;BME280;61968;48.178;11.566;2023-03-03T06:59:51;95867.28;;;2.40;44.24
73671;BME280;61968;48.178;11.566;2023-03-03T07:02:20;95862.31;;;2.53;44.12
73671;BME280;61968;48.178;11.566;2023-03-03T07:04:48;95861.13;;;2.56;44.43
73671;BME280;61968;48.178;11.566;2023-03-03T07:07:17;95867.03;;;2.50;44.32
73671;BME280;61968;48.178;11.566;2023-03-03T07:09:46;95872.34;;;2.42;44.30
73671;BME280;61968;48.178;11.566;2023-03-03T07:12:15;95872.88;;;2.14;44.89
73671;BME280;61968;48.178;11.566;2023-03-03T07:14:45;95879.72;;;2.15;44.51
73671;BME280;61968;48.178;11.566;2023-03-03T07:17:14;95880.63;;;1.99;45.12
73671;BME280;61968;48.178;11.566;2023-03-03T07:19:43;95880.75;;;2.06;44.92
73671;BME280;61968;48.178;11.566;2023-03-03T07:22:14;95883.72;;;2.03;45.45
73671;BME280;61968;48.178;11.566;2023-03-03T07:24:43;95893.53;;;2.24;45.25
73671;BME280;61968;48.178;11.566;2023-03-03T07:27:13;95889.97;;;2.16;44.83
73671;BME280;61968;48.178;11.566;2023-03-03T07:29:41;95883.47;;;2.12;45.11
73671;BME280;61968;48.178;11.566;2023-03-03T07:32:21;95892.66;;;2.08;45.32
73671;BME280;61968;48.178;11.566;2023-03-03T07:34:51;95894.47;;;2.23;44.97
73671;BME280;61968;48.178;11.566;2023-03-03T07:37:25;95898.22;;;2.51;44.47
73671;BME280;61968;48.178;11.566;2023-03-03T07:39:54;95903.38;;;2.59;44.15
73671;BME280;61968;48.178;11.566;2023-03-03T07:42:21;95908.59;;;2.59;44.30
73671;BME280;61968;48.178;11.566;2023-03-03T07:44:50;95911.66;;;2.63;43.84
73671;BME280;61968;48.178;11.566;2023-03-03T07:47:19;95909.41;;;2.60;44.15
73671;BME280;61968;48.178;11.566;2023-03-03T07:49:50;95908.34;;;2.69;44.13
73671;BME280;61968;48.178;11.566;2023-03-03T07:52:23;95915.19;;;2.70;43.55
73671;BME280;61968;48.178;11.566;2023-03-03T07:54:50;95914.25;;;2.40;44.20
73671;BME280;61968;48.178;11.566;2023-03-03T07:57:21;95913.91;;;2.43;44.87
73671;BME280;61968;48.178;11.566;2023-03-03T07:59:49;95917.88;;;2.39;44.27
73671;BME280;61968;48.178;11.566;2023-03-03T08:05:28;95915.38;;;2.46;44.40
73671;BME280;61968;48.178;11.566;2023-03-03T08:08:02;95910.38;;;2.36;44.64
73671;BME280;61968;48.178;11.566;2023-03-03T08:10:38;95920.44;;;2.47;44.71
73671;BME280;61968;48.178;11.566;2023-03-03T08:13:16;95920.53;;;2.54;44.11
73671;BME280;61968;48.178;11.566;2023-03-03T08:15:44;95910.75;;;2.71;44.59
73671;BME280;61968;48.178;11.566;2023-03-03T08:18:22;95911.56;;;2.71;43.97
73671;BME280;61968;48.178;11.566;2023-03-03T08:20:51;95908.00;;;2.72;44.00
73671;BME280;61968;48.178;11.566;2023-03-03T08:23:20;95910.53;;;2.80;44.31
73671;BME280;61968;48.178;11.566;2023-03-03T08:25:48;95912.16;;;2.58;44.41
73671;BME280;61968;48.178;11.566;2023-03-03T08:28:15;95921.91;;;2.64;44.31
73671;BME280;61968;48.178;11.566;2023-03-03T08:30:42;95916.47;;;2.74;44.22
73671;BME280;61968;48.178;11.566;2023-03-03T08:33:09;95914.75;;;2.81;43.66
73671;BME280;61968;48.178;11.566;2023-03-03T08:35:37;95927.22;;;2.94;43.96
73671;BME280;61968;48.178;11.566;2023-03-03T08:38:05;95926.31;;;2.87;43.89
73671;BME280;61968;48.178;11.566;2023-03-03T08:40:32;95932.41;;;2.79;43.66
73671;BME280;61968;48.178;11.566;2023-03-03T08:43:00;95926.81;;;2.82;43.73
73671;BME280;61968;48.178;11.566;2023-03-03T08:45:26;95925.38;;;2.80;44.05
73671;BME280;61968;48.178;11.566;2023-03-03T08:47:53;95930.59;;;2.80;44.12
73671;BME280;61968;48.178;11.566;2023-03-03T08:50:20;95932.22;;;2.81;43.67
73671;BME280;61968;48.178;11.566;2023-03-03T08:52:46;95935.31;;;2.84;44.03
73671;BME280;61968;48.178;11.566;2023-03-03T08:55:14;95938.88;;;2.69;44.52
73671;BME280;61968;48.178;11.566;2023-03-03T08:57:41;95934.84;;;2.81;44.83
73671;BME280;61968;48.178;11.566;2023-03-03T09:00:10;95944.22;;;2.90;43.76
73671;BME280;61968;48.178;11.566;2023-03-03T09:02:37;95935.44;;;3.06;43.91
73671;BME280;61968;48.178;11.566;2023-03-03T09:05:04;95941.03;;;3.18;43.77
73671;BME280;61968;48.178;11.566;2023-03-03T09:07:31;95937.53;;;3.11;43.73
73671;BME280;61968;48.178;11.566;2023-03-03T09:09:58;95940.31;;;3.09;43.62
73671;BME280;61968;48.178;11.566;2023-03-03T09:12:28;95936.50;;;2.97;43.68
73671;BME280;61968;48.178;11.566;2023-03-03T09:14:57;95944.72;;;3.08;43.38
73671;BME280;61968;48.178;11.566;2023-03-03T09:17:28;95945.47;;;3.17;43.21
73671;BME280;61968;48.178;11.566;2023-03-03T09:19:57;95944.91;;;3.22;43.30
73671;BME280;61968;48.178;11.566;2023-03-03T09:22:26;95951.25;;;2.90;44.60
73671;BME280;61968;48.178;11.566;2023-03-03T09:24:56;95948.84;;;3.03;43.46
73671;BME280;61968;48.178;11.566;2023-03-03T09:27:28;95948.59;;;3.13;43.85
73671;BME280;61968;48.178;11.566;2023-03-03T09:29:56;95948.88;;;3.18;43.12
73671;BME280;61968;48.178;11.566;2023-03-03T09:32:34;95945.78;;;2.99;43.66
73671;BME280;61968;48.178;11.566;2023-03-03T09:35:33;95952.56;;;3.08;43.43
73671;BME280;61968;48.178;11.566;2023-03-03T09:38:11;95958.94;;;3.06;43.84
73671;BME280;61968;48.178;11.566;2023-03-03T09:40:50;95961.22;;;2.86;43.84
73671;BME280;61968;48.178;11.566;2023-03-03T09:43:27;95958.63;;;2.86;44.19
73671;BME280;61968;48.178;11.566;2023-03-03T09:46:03;95961.66;;;3.13;43.81
73671;BME280;61968;48.178;11.566;2023-03-03T09:49:00;95968.56;;;3.28;43.34
73671;BME280;61968;48.178;11.566;2023-03-03T09:51:40;95972.81;;;3.29;43.33
73671;BME280;61968;48.178;11.566;2023-03-03T09:54:22;95964.72;;;3.16;43.45
73671;BME280;61968;48.178;11.566;2023-03-03T09:57:01;95968.56;;;3.28;43.80
73671;BME280;61968;48.178;11.566;2023-03-03T09:59:40;95970.56;;;3.41;43.29
73671;BME280;61968;48.178;11.566;2023-03-03T10:02:36;95971.75;;;3.53;42.97
73671;BME280;61968;48.178;11.566;2023-03-03T10:05:13;95972.09;;;3.50;43.39
73671;BME280;61968;48.178;11.566;2023-03-03T10:07:51;95980.84;;;3.58;43.08
73671;BME280;61968;48.178;11.566;2023-03-03T10:10:31;95979.94;;;3.36;43.30
73671;BME280;61968;48.178;11.566;2023-03-03T10:13:14;95986.78;;;3.37;43.47
73671;BME280;61968;48.178;11.566;2023-03-03T10:15:55;95987.16;;;3.48;42.98
73671;BME280;61968;48.178;11.566;2023-03-03T10:18:28;95985.34;;;3.64;43.21
73671;BME280;61968;48.178;11.566;2023-03-03T10:21:09;95990.94;;;3.75;42.88
73671;BME280;61968;48.178;11.566;2023-03-03T10:23:53;95989.59;;;3.80;42.55
73671;BME280;61968;48.178;11.566;2023-03-03T10:26:28;95992.47;;;3.70;42.69
73671;BME280;61968;48.178;11.566;2023-03-03T10:29:10;95992.13;;;3.73;43.52
73671;BME280;61968;48.178;11.566;2023-03-03T10:31:50;95992.91;;;3.88;42.32
73671;BME280;61968;48.178;11.566;2023-03-03T10:34:31;95992.03;;;3.81;42.43
73671;BME280;61968;48.178;11.566;2023-03-03T10:37:05;95990.50;;;3.57;42.60
73671;BME280;61968;48.178;11.566;2023-03-03T10:39:45;95993.56;;;3.61;42.84
73671;BME280;61968;48.178;11.566;2023-03-03T10:42:19;95993.47;;;3.69;42.98
73671;BME280;61968;48.178;11.566;2023-03-03T10:45:10;95984.91;;;3.75;42.84
73671;BME280;61968;48.178;11.566;2023-03-03T10:47:51;95987.69;;;3.88;42.41
73671;BME280;61968;48.178;11.566;2023-03-03T10:50:26;95981.28;;;4.06;42.57
73671;BME280;61968;48.178;11.566;2023-03-03T10:53:06;95984.78;;;4.13;42.08
73671;BME280;61968;48.178;11.566;2023-03-03T10:55:42;95985.03;;;4.18;41.84
73671;BME280;61968;48.178;11.566;2023-03-03T10:58:33;95990.75;;;4.07;41.81
73671;BME280;61968;48.178;11.566;2023-03-03T11:01:09;95989.75;;;4.22;41.83
73671;BME280;61968;48.178;11.566;2023-03-03T11:06:45;95998.19;;;4.24;41.93
73671;BME280;61968;48.178;11.566;2023-03-03T11:12:22;96003.72;;;4.15;41.64
73671;BME280;61968;48.178;11.566;2023-03-03T11:15:06;96008.41;;;4.19;41.77
73671;BME280;61968;48.178;11.566;2023-03-03T11:17:53;96003.28;;;4.26;41.86
73671;BME280;61968;48.178;11.566;2023-03-03T11:20:30;95998.47;;;4.30;41.98
73671;BME280;61968;48.178;11.566;2023-03-03T11:23:12;95999.53;;;4.35;41.99
73671;BME280;61968;48.178;11.566;2023-03-03T11:25:50;95998.81;;;4.41;41.92
73671;BME280;61968;48.178;11.566;2023-03-03T11:28:29;96003.84;;;4.43;42.23
73671;BME280;61968;48.178;11.566;2023-03-03T11:31:11;95994.13;;;4.37;41.76
73671;BME280;61968;48.178;11.566;2023-03-03T11:33:46;96003.81;;;4.21;42.85
73671;BME280;61968;48.178;11.566;2023-03-03T11:36:22;95995.13;;;4.36;42.86
73671;BME280;61968;48.178;11.566;2023-03-03T11:38:56;95988.72;;;4.38;41.88
73671;BME280;61968;48.178;11.566;2023-03-03T11:41:29;95981.03;;;4.37;42.00
73671;BME280;61968;48.178;11.566;2023-03-03T11:44:01;95980.66;;;4.40;41.44
73671;BME280;61968;48.178;11.566;2023-03-03T11:46:35;95971.81;;;4.41;41.65
73671;BME280;61968;48.178;11.566;2023-03-03T11:49:05;95978.16;;;4.32;41.60
73671;BME280;61968;48.178;11.566;2023-03-03T11:51:49;95980.34;;;4.50;42.05
73671;BME280;61968;48.178;11.566;2023-03-03T11:54:21;95964.41;;;4.66;41.19
73671;BME280;61968;48.178;11.566;2023-03-03T11:56:51;95963.22;;;4.68;40.92
73671;BME280;61968;48.178;11.566;2023-03-03T11:59:37;95961.53;;;4.61;41.21
73671;BME280;61968;48.178;11.566;2023-03-03T12:02:14;95960.28;;;4.57;41.46
73671;BME280;61968;48.178;11.566;2023-03-03T12:04:49;95963.97;;;4.62;40.84
73671;BME280;61968;48.178;11.566;2023-03-03T12:07:25;95959.16;;;4.66;40.82
73671;BME280;61968;48.178;11.566;2023-03-03T12:10:02;95961.53;;;4.61;40.90
73671;BME280;61968;48.178;11.566;2023-03-03T12:12:34;95953.19;;;4.72;41.01
73671;BME280;61968;48.178;11.566;2023-03-03T12:15:11;95945.38;;;4.57;41.02
73671;BME280;61968;48.178;11.566;2023-03-03T12:17:54;95950.31;;;4.67;40.96
73671;BME280;61968;48.178;11.566;2023-03-03T12:20:27;95947.88;;;4.65;40.79
73671;BME280;61968;48.178;11.566;2023-03-03T12:23:12;95954.31;;;4.84;40.29
73671;BME280;61968;48.178;11.566;2023-03-03T12:25:43;95965.00;;;5.32;65.34
73671;BME280;61968;48.178;11.566;2023-03-03T12:28:15;95961.56;;;7.42;56.63
73671;BME280;61968;48.178;11.566;2023-03-03T12:30:59;95959.47;;;7.98;47.91
73671;BME280;61968;48.178;11.566;2023-03-03T12:33:38;95955.59;;;8.00;45.48
73671;BME280;61968;48.178;11.566;2023-03-03T12:36:17;95957.38;;;8.06;44.97
73671;BME280;61968;48.178;11.566;2023-03-03T12:38:52;95953.47;;;7.71;35.91
73671;BME280;61968;48.178;11.566;2023-03-03T12:41:26;95957.50;;;7.66;41.47
73671;BME280;61968;48.178;11.566;2023-03-03T12:44:00;95954.19;;;7.91;41.76
73671;BME280;61968;48.178;11.566;2023-03-03T12:46:40;95948.53;;;7.94;39.95
73671;BME280;61968;48.178;11.566;2023-03-03T12:49:09;95935.41;;;7.81;37.24
73671;BME280;61968;48.178;11.566;2023-03-03T12:51:45;95949.34;;;7.88;41.49
73671;BME280;61968;48.178;11.566;2023-03-03T12:54:31;95946.81;;;7.61;38.01
73671;BME280;61968;48.178;11.566;2023-03-03T12:57:12;95937.75;;;7.04;38.29
73671;BME280;61968;48.178;11.566;2023-03-03T12:59:48;95945.56;;;7.71;43.26
73671;BME280;61968;48.178;11.566;2023-03-03T13:02:37;95946.59;;;7.63;36.64
73671;BME280;61968;48.178;11.566;2023-03-03T13:05:13;95934.09;;;7.25;37.17
73671;BME280;61968;48.178;11.566;2023-03-03T13:07:47;95940.97;;;7.06;37.42
73671;BME280;61968;48.178;11.566;2023-03-03T13:10:23;95940.16;;;6.86;37.70
73671;BME280;61968;48.178;11.566;2023-03-03T13:12:55;95942.97;;;6.71;37.21
73671;BME280;61968;48.178;11.566;2023-03-03T13:15:26;95946.41;;;6.65;37.49
73671;BME280;61968;48.178;11.566;2023-03-03T13:17:59;95938.50;;;6.58;37.83
73671;BME280;61968;48.178;11.566;2023-03-03T13:20:35;95941.72;;;6.47;38.02
73671;BME280;61968;48.178;11.566;2023-03-03T13:23:07;95935.34;;;6.15;39.02
73671;BME280;61968;48.178;11.566;2023-03-03T13:25:46;95933.25;;;5.97;39.18
73671;BME280;61968;48.178;11.566;2023-03-03T13:28:21;95927.38;;;5.95;39.60